sensor_id;sensor_type;location;lat;lon;timestamp;P1;P2;P0
78063;PMS5003;67429;51.596;-3.264;2023-08-20T00:01:06;5;4;
78063;PMS5003;67429;51.596;-3.264;2023-08-20T00:03:32;6;4;
78063;PMS5003;67429;51.596;-3.264;2023-08-20T00:05:57;6;6;
78063;PMS5003;67429;51.596;-3.264;2023-08-20T00:08:23;5;4;
78063;PMS5003;67429;51.596;-3.264;2023-08-20T00:10:48;10;9;
78063;PMS5003;67429;51.596;-3.264;2023-08-20T00:13:14;6;6;
78063;PMS5003;67429;51.596;-3.264;2023-08-20T00:15:39;8;7;
78063;PMS5003;67429;51.596;-3.264;2023-08-20T00:18:05;6;5;
78063;PMS5003;67429;51.596;-3.264;2023-08-20T00:20:30;5;4;
78063;PMS5003;67429;51.596;-3.264;2023-08-20T00:22:56;7;6;
78063;PMS5003;67429;51.596;-3.264;2023-08-20T00:25:21;6;5;
78063;PMS5003;67429;51.596;-3.264;2023-08-20T00:27:46;6;5;
78063;PMS5003;67429;51.596;-3.264;2023-08-20T00:30:12;6;6;
78063;PMS5003;67429;51.596;-3.264;2023-08-20T00:32:38;5;5;
78063;PMS5003;67429;51.596;-3.264;2023-08-20T00:35:03;5;4;
78063;PMS5003;67429;51.596;-3.264;2023-08-20T00:37:28;6;6;
78063;PMS5003;67429;51.596;-3.264;2023-08-20T00:39:54;8;6;
78063;PMS5003;67429;51.596;-3.264;2023-08-20T00:42:19;5;5;
78063;PMS5003;67429;51.596;-3.264;2023-08-20T00:44:45;8;7;
78063;PMS5003;67429;51.596;-3.264;2023-08-20T00:47:10;6;6;
78063;PMS5003;67429;51.596;-3.264;2023-08-20T00:49:36;8;7;
78063;PMS5003;67429;51.596;-3.264;2023-08-20T00:52:02;7;6;
78063;PMS5003;67429;51.596;-3.264;2023-08-20T00:54:27;7;6;
78063;PMS5003;67429;51.596;-3.264;2023-08-20T00:56:52;6;5;
78063;PMS5003;67429;51.596;-3.264;2023-08-20T00:59:18;10;9;
78063;PMS5003;67429;51.596;-3.264;2023-08-20T01:01:43;6;6;
78063;PMS5003;67429;51.596;-3.264;2023-08-20T01:04:09;5;5;
78063;PMS5003;67429;51.596;-3.264;2023-08-20T01:06:37;5;5;
78063;PMS5003;67429;51.596;-3.264;2023-08-20T01:09:01;3;3;
78063;PMS5003;67429;51.596;-3.264;2023-08-20T01:11:26;7;6;
78063;PMS5003;67429;51.596;-3.264;2023-08-20T01:13:51;7;6;
78063;PMS5003;67429;51.596;-3.264;2023-08-20T01:16:16;6;5;
78063;PMS5003;67429;51.596;-3.264;2023-08-20T01:18:42;7;6;
78063;PMS5003;67429;51.596;-3.264;2023-08-20T01:21:11;5;4;
78063;PMS5003;67429;51.596;-3.264;2023-08-20T01:23:42;5;5;
78063;PMS5003;67429;51.596;-3.264;2023-08-20T01:26:03;4;4;
78063;PMS5003;67429;51.596;-3.264;2023-08-20T01:28:25;7;5;
78063;PMS5003;67429;51.596;-3.264;2023-08-20T01:30:49;4;3;
78063;PMS5003;67429;51.596;-3.264;2023-08-20T01:33:14;6;4;
78063;PMS5003;67429;51.596;-3.264;2023-08-20T01:35:40;6;5;
78063;PMS5003;67429;51.596;-3.264;2023-08-20T01:38:05;5;5;
78063;PMS5003;67429;51.596;-3.264;2023-08-20T01:40:31;6;5;
78063;PMS5003;67429;51.596;-3.264;2023-08-20T01:42:56;5;4;
78063;PMS5003;67429;51.596;-3.264;2023-08-20T01:45:22;6;5;
78063;PMS5003;67429;51.596;-3.264;2023-08-20T01:47:47;4;4;
78063;PMS5003;67429;51.596;-3.264;2023-08-20T01:50:13;6;5;
78063;PMS5003;67429;51.596;-3.264;2023-08-20T01:52:38;5;5;
78063;PMS5003;67429;51.596;-3.264;2023-08-20T01:55:03;5;5;
78063;PMS5003;67429;51.596;-3.264;2023-08-20T01:57:29;6;5;
78063;PMS5003;67429;51.596;-3.264;2023-08-20T01:59:54;4;3;
78063;PMS5003;67429;51.596;-3.264;2023-08-20T02:02:20;4;3;
78063;PMS5003;67429;51.596;-3.264;2023-08-20T02:04:45;5;4;
78063;PMS5003;67429;51.596;-3.264;2023-08-20T02:07:10;5;4;
78063;PMS5003;67429;51.596;-3.264;2023-08-20T02:09:35;3;3;
78063;PMS5003;67429;51.596;-3.264;2023-08-20T02:12:01;6;6;
78063;PMS5003;67429;51.596;-3.264;2023-08-20T02:14:26;4;4;
78063;PMS5003;67429;51.596;-3.264;2023-08-20T02:16:52;6;6;
78063;PMS5003;67429;51.596;-3.264;2023-08-20T02:19:17;7;6;
78063;PMS5003;67429;51.596;-3.264;2023-08-20T02:21:43;6;6;
78063;PMS5003;67429;51.596;-3.264;2023-08-20T02:24:09;5;4;
78063;PMS5003;67429;51.596;-3.264;2023-08-20T02:26:34;4;4;
78063;PMS5003;67429;51.596;-3.264;2023-08-20T02:28:59;4;4;
78063;PMS5003;67429;51.596;-3.264;2023-08-20T02:31:25;3;3;
78063;PMS5003;67429;51.596;-3.264;2023-08-20T02:33:50;4;4;
78063;PMS5003;67429;51.596;-3.264;2023-08-20T02:36:15;4;4;
78063;PMS5003;67429;51.596;-3.264;2023-08-20T02:38:41;4;4;
78063;PMS5003;67429;51.596;-3.264;2023-08-20T02:41:07;5;5;
78063;PMS5003;67429;51.596;-3.264;2023-08-20T02:43:32;6;6;
78063;PMS5003;67429;51.596;-3.264;2023-08-20T02:45:58;5;5;
78063;PMS5003;67429;51.596;-3.264;2023-08-20T02:48:23;3;3;
78063;PMS5003;67429;51.596;-3.264;2023-08-20T02:50:49;3;3;
78063;PMS5003;67429;51.596;-3.264;2023-08-20T02:53:14;6;6;
78063;PMS5003;67429;51.596;-3.264;2023-08-20T02:55:39;6;6;
78063;PMS5003;67429;51.596;-3.264;2023-08-20T02:58:05;5;5;
78063;PMS5003;67429;51.596;-3.264;2023-08-20T03:00:31;5;5;
78063;PMS5003;67429;51.596;-3.264;2023-08-20T03:02:56;6;5;
78063;PMS5003;67429;51.596;-3.264;2023-08-20T03:05:22;5;4;
78063;PMS5003;67429;51.596;-3.264;2023-08-20T03:07:47;6;5;
78063;PMS5003;67429;51.596;-3.264;2023-08-20T03:10:12;4;3;
78063;PMS5003;67429;51.596;-3.264;2023-08-20T03:12:38;6;5;
78063;PMS5003;67429;51.596;-3.264;2023-08-20T03:15:04;6;5;
78063;PMS5003;67429;51.596;-3.264;2023-08-20T03:17:29;6;5;
78063;PMS5003;67429;51.596;-3.264;2023-08-20T03:19:55;6;5;
78063;PMS5003;67429;51.596;-3.264;2023-08-20T03:22:20;7;6;
78063;PMS5003;67429;51.596;-3.264;2023-08-20T03:24:45;4;2;
78063;PMS5003;67429;51.596;-3.264;2023-08-20T03:27:11;8;7;
78063;PMS5003;67429;51.596;-3.264;2023-08-20T03:29:36;6;5;
78063;PMS5003;67429;51.596;-3.264;2023-08-20T03:32:01;4;4;
78063;PMS5003;67429;51.596;-3.264;2023-08-20T03:34:27;5;5;
78063;PMS5003;67429;51.596;-3.264;2023-08-20T03:36:52;5;5;
78063;PMS5003;67429;51.596;-3.264;2023-08-20T03:39:17;4;3;
78063;PMS5003;67429;51.596;-3.264;2023-08-20T03:41:43;6;5;
78063;PMS5003;67429;51.596;-3.264;2023-08-20T03:44:08;4;4;
78063;PMS5003;67429;51.596;-3.264;2023-08-20T03:46:34;4;3;
78063;PMS5003;67429;51.596;-3.264;2023-08-20T03:48:59;3;3;
78063;PMS5003;67429;51.596;-3.264;2023-08-20T03:51:25;4;4;
78063;PMS5003;67429;51.596;-3.264;2023-08-20T03:53:50;5;4;
78063;PMS5003;67429;51.596;-3.264;2023-08-20T03:56:15;3;3;
78063;PMS5003;67429;51.596;-3.264;2023-08-20T03:58:41;6;6;
78063;PMS5003;67429;51.596;-3.264;2023-08-20T04:01:07;5;5;
78063;PMS5003;67429;51.596;-3.264;2023-08-20T04:03:32;3;3;
78063;PMS5003;67429;51.596;-3.264;2023-08-20T04:05:57;6;6;
78063;PMS5003;67429;51.596;-3.264;2023-08-20T04:08:23;4;4;
78063;PMS5003;67429;51.596;-3.264;2023-08-20T04:10:49;4;4;
78063;PMS5003;67429;51.596;-3.264;2023-08-20T04:13:14;5;5;
78063;PMS5003;67429;51.596;-3.264;2023-08-20T04:15:40;3;3;
78063;PMS5003;67429;51.596;-3.264;2023-08-20T04:18:05;6;6;
78063;PMS5003;67429;51.596;-3.264;2023-08-20T04:20:31;6;6;
78063;PMS5003;67429;51.596;-3.264;2023-08-20T04:22:56;5;5;
78063;PMS5003;67429;51.596;-3.264;2023-08-20T04:25:22;4;3;
78063;PMS5003;67429;51.596;-3.264;2023-08-20T04:27:47;6;5;
78063;PMS5003;67429;51.596;-3.264;2023-08-20T04:30:12;4;4;
78063;PMS5003;67429;51.596;-3.264;2023-08-20T04:32:38;5;4;
78063;PMS5003;67429;51.596;-3.264;2023-08-20T04:35:03;4;4;
78063;PMS5003;67429;51.596;-3.264;2023-08-20T04:37:29;6;5;
78063;PMS5003;67429;51.596;-3.264;2023-08-20T04:39:54;4;4;
78063;PMS5003;67429;51.596;-3.264;2023-08-20T04:42:20;4;4;
78063;PMS5003;67429;51.596;-3.264;2023-08-20T04:44:45;5;4;
78063;PMS5003;67429;51.596;-3.264;2023-08-20T04:47:11;6;5;
78063;PMS5003;67429;51.596;-3.264;2023-08-20T04:49:36;3;3;
78063;PMS5003;67429;51.596;-3.264;2023-08-20T04:52:02;9;8;
78063;PMS5003;67429;51.596;-3.264;2023-08-20T04:54:27;5;5;
78063;PMS5003;67429;51.596;-3.264;2023-08-20T04:56:53;7;6;
78063;PMS5003;67429;51.596;-3.264;2023-08-20T04:59:18;4;4;
78063;PMS5003;67429;51.596;-3.264;2023-08-20T05:01:44;6;5;
78063;PMS5003;67429;51.596;-3.264;2023-08-20T05:04:09;3;3;
78063;PMS5003;67429;51.596;-3.264;2023-08-20T05:06:34;2;2;
78063;PMS5003;67429;51.596;-3.264;2023-08-20T05:09:00;5;5;
78063;PMS5003;67429;51.596;-3.264;2023-08-20T05:11:25;3;3;
78063;PMS5003;67429;51.596;-3.264;2023-08-20T05:13:51;4;4;
78063;PMS5003;67429;51.596;-3.264;2023-08-20T05:16:16;3;3;
78063;PMS5003;67429;51.596;-3.264;2023-08-20T05:18:42;4;4;
78063;PMS5003;67429;51.596;-3.264;2023-08-20T05:21:07;3;3;
78063;PMS5003;67429;51.596;-3.264;2023-08-20T05:23:33;4;4;
78063;PMS5003;67429;51.596;-3.264;2023-08-20T05:25:58;4;4;
78063;PMS5003;67429;51.596;-3.264;2023-08-20T05:28:24;6;6;
78063;PMS5003;67429;51.596;-3.264;2023-08-20T05:30:54;3;3;
78063;PMS5003;67429;51.596;-3.264;2023-08-20T05:33:15;3;3;
78063;PMS5003;67429;51.596;-3.264;2023-08-20T05:35:40;5;5;
78063;PMS5003;67429;51.596;-3.264;2023-08-20T05:38:06;5;5;
78063;PMS5003;67429;51.596;-3.264;2023-08-20T05:40:32;4;2;
78063;PMS5003;67429;51.596;-3.264;2023-08-20T05:42:56;5;5;
78063;PMS5003;67429;51.596;-3.264;2023-08-20T05:45:22;4;4;
78063;PMS5003;67429;51.596;-3.264;2023-08-20T05:47:47;4;4;
78063;PMS5003;67429;51.596;-3.264;2023-08-20T05:50:13;5;4;
78063;PMS5003;67429;51.596;-3.264;2023-08-20T05:52:38;3;3;
78063;PMS5003;67429;51.596;-3.264;2023-08-20T05:55:04;5;4;
78063;PMS5003;67429;51.596;-3.264;2023-08-20T05:57:29;4;4;
78063;PMS5003;67429;51.596;-3.264;2023-08-20T05:59:54;3;3;
78063;PMS5003;67429;51.596;-3.264;2023-08-20T06:02:20;4;4;
78063;PMS5003;67429;51.596;-3.264;2023-08-20T06:04:45;4;4;
78063;PMS5003;67429;51.596;-3.264;2023-08-20T06:07:11;4;4;
78063;PMS5003;67429;51.596;-3.264;2023-08-20T06:09:36;4;4;
78063;PMS5003;67429;51.596;-3.264;2023-08-20T06:12:02;3;3;
78063;PMS5003;67429;51.596;-3.264;2023-08-20T06:14:27;2;2;
78063;PMS5003;67429;51.596;-3.264;2023-08-20T06:16:53;4;4;
78063;PMS5003;67429;51.596;-3.264;2023-08-20T06:19:18;3;3;
78063;PMS5003;67429;51.596;-3.264;2023-08-20T06:21:44;5;5;
78063;PMS5003;67429;51.596;-3.264;2023-08-20T06:24:09;4;4;
78063;PMS5003;67429;51.596;-3.264;2023-08-20T06:26:35;4;4;
78063;PMS5003;67429;51.596;-3.264;2023-08-20T06:29:00;6;4;
78063;PMS5003;67429;51.596;-3.264;2023-08-20T06:31:26;5;4;
78063;PMS5003;67429;51.596;-3.264;2023-08-20T06:33:51;3;3;
78063;PMS5003;67429;51.596;-3.264;2023-08-20T06:36:17;5;4;
78063;PMS5003;67429;51.596;-3.264;2023-08-20T06:38:42;2;2;
78063;PMS5003;67429;51.596;-3.264;2023-08-20T06:41:08;7;5;
78063;PMS5003;67429;51.596;-3.264;2023-08-20T06:43:33;4;4;
78063;PMS5003;67429;51.596;-3.264;2023-08-20T06:45:59;5;4;
78063;PMS5003;67429;51.596;-3.264;2023-08-20T06:48:24;5;4;
78063;PMS5003;67429;51.596;-3.264;2023-08-20T06:50:50;4;4;
78063;PMS5003;67429;51.596;-3.264;2023-08-20T06:53:15;5;4;
78063;PMS5003;67429;51.596;-3.264;2023-08-20T06:55:41;5;4;
78063;PMS5003;67429;51.596;-3.264;2023-08-20T06:58:06;5;4;
78063;PMS5003;67429;51.596;-3.264;2023-08-20T07:00:31;5;5;
78063;PMS5003;67429;51.596;-3.264;2023-08-20T07:02:57;5;4;
78063;PMS5003;67429;51.596;-3.264;2023-08-20T07:05:22;4;4;
78063;PMS5003;67429;51.596;-3.264;2023-08-20T07:07:48;4;4;
78063;PMS5003;67429;51.596;-3.264;2023-08-20T07:10:13;3;3;
78063;PMS5003;67429;51.596;-3.264;2023-08-20T07:12:39;3;3;
78063;PMS5003;67429;51.596;-3.264;2023-08-20T07:15:05;5;4;
78063;PMS5003;67429;51.596;-3.264;2023-08-20T07:17:30;4;4;
78063;PMS5003;67429;51.596;-3.264;2023-08-20T07:19:55;4;4;
78063;PMS5003;67429;51.596;-3.264;2023-08-20T07:22:21;4;4;
78063;PMS5003;67429;51.596;-3.264;2023-08-20T07:24:46;3;3;
78063;PMS5003;67429;51.596;-3.264;2023-08-20T07:27:11;6;5;
78063;PMS5003;67429;51.596;-3.264;2023-08-20T07:29:37;4;4;
78063;PMS5003;67429;51.596;-3.264;2023-08-20T07:32:02;3;3;
78063;PMS5003;67429;51.596;-3.264;2023-08-20T07:34:28;2;2;
78063;PMS5003;67429;51.596;-3.264;2023-08-20T07:36:53;4;4;
78063;PMS5003;67429;51.596;-3.264;2023-08-20T07:39:18;2;2;
78063;PMS5003;67429;51.596;-3.264;2023-08-20T07:41:44;3;3;
78063;PMS5003;67429;51.596;-3.264;2023-08-20T07:44:09;4;3;
78063;PMS5003;67429;51.596;-3.264;2023-08-20T07:46:35;3;3;
78063;PMS5003;67429;51.596;-3.264;2023-08-20T07:49:00;4;4;
78063;PMS5003;67429;51.596;-3.264;2023-08-20T07:51:27;4;3;
78063;PMS5003;67429;51.596;-3.264;2023-08-20T07:53:51;2;2;
78063;PMS5003;67429;51.596;-3.264;2023-08-20T07:56:17;5;4;
78063;PMS5003;67429;51.596;-3.264;2023-08-20T07:58:42;3;3;
78063;PMS5003;67429;51.596;-3.264;2023-08-20T08:01:07;3;3;
78063;PMS5003;67429;51.596;-3.264;2023-08-20T08:03:33;2;2;
78063;PMS5003;67429;51.596;-3.264;2023-08-20T08:05:58;4;4;
78063;PMS5003;67429;51.596;-3.264;2023-08-20T08:08:24;3;3;
78063;PMS5003;67429;51.596;-3.264;2023-08-20T08:10:49;4;3;
78063;PMS5003;67429;51.596;-3.264;2023-08-20T08:13:18;2;2;
78063;PMS5003;67429;51.596;-3.264;2023-08-20T08:15:40;4;3;
78063;PMS5003;67429;51.596;-3.264;2023-08-20T08:18:06;2;2;
78063;PMS5003;67429;51.596;-3.264;2023-08-20T08:20:31;3;3;
78063;PMS5003;67429;51.596;-3.264;2023-08-20T08:22:56;5;4;
78063;PMS5003;67429;51.596;-3.264;2023-08-20T08:25:22;3;2;
78063;PMS5003;67429;51.596;-3.264;2023-08-20T08:27:48;3;3;
78063;PMS5003;67429;51.596;-3.264;2023-08-20T08:30:14;3;3;
78063;PMS5003;67429;51.596;-3.264;2023-08-20T08:32:38;3;3;
78063;PMS5003;67429;51.596;-3.264;2023-08-20T08:35:04;3;2;
78063;PMS5003;67429;51.596;-3.264;2023-08-20T08:37:29;2;2;
78063;PMS5003;67429;51.596;-3.264;2023-08-20T08:39:55;1;1;
78063;PMS5003;67429;51.596;-3.264;2023-08-20T08:42:20;2;2;
78063;PMS5003;67429;51.596;-3.264;2023-08-20T08:44:46;2;2;
78063;PMS5003;67429;51.596;-3.264;2023-08-20T08:47:11;4;4;
78063;PMS5003;67429;51.596;-3.264;2023-08-20T08:49:36;3;2;
78063;PMS5003;67429;51.596;-3.264;2023-08-20T08:52:03;2;2;
78063;PMS5003;67429;51.596;-3.264;2023-08-20T08:54:27;3;3;
78063;PMS5003;67429;51.596;-3.264;2023-08-20T08:56:52;3;3;
78063;PMS5003;67429;51.596;-3.264;2023-08-20T08:59:18;4;4;
78063;PMS5003;67429;51.596;-3.264;2023-08-20T09:01:44;2;2;
78063;PMS5003;67429;51.596;-3.264;2023-08-20T09:04:09;3;3;
78063;PMS5003;67429;51.596;-3.264;2023-08-20T09:09:03;3;3;
78063;PMS5003;67429;51.596;-3.264;2023-08-20T09:13:51;3;3;
78063;PMS5003;67429;51.596;-3.264;2023-08-20T09:16:16;3;3;
78063;PMS5003;67429;51.596;-3.264;2023-08-20T09:18:44;3;3;
78063;PMS5003;67429;51.596;-3.264;2023-08-20T09:21:07;3;2;
78063;PMS5003;67429;51.596;-3.264;2023-08-20T09:23:32;2;2;
78063;PMS5003;67429;51.596;-3.264;2023-08-20T09:26:00;2;2;
78063;PMS5003;67429;51.596;-3.264;2023-08-20T09:28:23;3;2;
78063;PMS5003;67429;51.596;-3.264;2023-08-20T09:30:55;1;1;
78063;PMS5003;67429;51.596;-3.264;2023-08-20T09:33:14;6;6;
78063;PMS5003;67429;51.596;-3.264;2023-08-20T09:35:45;1;1;
78063;PMS5003;67429;51.596;-3.264;2023-08-20T09:38:05;1;1;
78063;PMS5003;67429;51.596;-3.264;2023-08-20T09:40:31;3;3;
78063;PMS5003;67429;51.596;-3.264;2023-08-20T09:42:56;3;3;
78063;PMS5003;67429;51.596;-3.264;2023-08-20T09:45:21;2;2;
78063;PMS5003;67429;51.596;-3.264;2023-08-20T09:47:47;2;2;
78063;PMS5003;67429;51.596;-3.264;2023-08-20T09:50:12;4;3;
78063;PMS5003;67429;51.596;-3.264;2023-08-20T09:52:39;2;2;
78063;PMS5003;67429;51.596;-3.264;2023-08-20T09:55:03;2;2;
78063;PMS5003;67429;51.596;-3.264;2023-08-20T09:57:32;2;2;
78063;PMS5003;67429;51.596;-3.264;2023-08-20T09:59:54;3;3;
78063;PMS5003;67429;51.596;-3.264;2023-08-20T10:02:19;1;1;
78063;PMS5003;67429;51.596;-3.264;2023-08-20T10:04:45;3;3;
78063;PMS5003;67429;51.596;-3.264;2023-08-20T10:07:11;2;2;
78063;PMS5003;67429;51.596;-3.264;2023-08-20T10:09:36;4;4;
78063;PMS5003;67429;51.596;-3.264;2023-08-20T10:12:01;2;2;
78063;PMS5003;67429;51.596;-3.264;2023-08-20T10:14:26;1;1;
78063;PMS5003;67429;51.596;-3.264;2023-08-20T10:16:52;3;3;
78063;PMS5003;67429;51.596;-3.264;2023-08-20T10:19:17;5;4;
78063;PMS5003;67429;51.596;-3.264;2023-08-20T10:21:43;1;1;
78063;PMS5003;67429;51.596;-3.264;2023-08-20T10:24:08;2;2;
78063;PMS5003;67429;51.596;-3.264;2023-08-20T10:26:33;4;4;
78063;PMS5003;67429;51.596;-3.264;2023-08-20T10:31:25;2;2;
78063;PMS5003;67429;51.596;-3.264;2023-08-20T10:33:50;1;1;
78063;PMS5003;67429;51.596;-3.264;2023-08-20T10:36:15;3;3;
78063;PMS5003;67429;51.596;-3.264;2023-08-20T10:38:40;0;0;
78063;PMS5003;67429;51.596;-3.264;2023-08-20T10:41:06;1;1;
78063;PMS5003;67429;51.596;-3.264;2023-08-20T10:43:32;4;3;
78063;PMS5003;67429;51.596;-3.264;2023-08-20T10:46:02;2;2;
78063;PMS5003;67429;51.596;-3.264;2023-08-20T10:48:23;2;2;
78063;PMS5003;67429;51.596;-3.264;2023-08-20T10:50:47;3;3;
78063;PMS5003;67429;51.596;-3.264;2023-08-20T10:53:13;1;1;
78063;PMS5003;67429;51.596;-3.264;2023-08-20T10:55:38;4;2;
78063;PMS5003;67429;51.596;-3.264;2023-08-20T10:58:03;3;3;
78063;PMS5003;67429;51.596;-3.264;2023-08-20T11:00:29;2;2;
78063;PMS5003;67429;51.596;-3.264;2023-08-20T11:02:54;2;2;
78063;PMS5003;67429;51.596;-3.264;2023-08-20T11:05:20;2;2;
78063;PMS5003;67429;51.596;-3.264;2023-08-20T11:07:45;2;2;
78063;PMS5003;67429;51.596;-3.264;2023-08-20T11:10:10;3;3;
78063;PMS5003;67429;51.596;-3.264;2023-08-20T11:12:36;2;2;
78063;PMS5003;67429;51.596;-3.264;2023-08-20T11:15:01;1;1;
78063;PMS5003;67429;51.596;-3.264;2023-08-20T11:17:26;2;1;
78063;PMS5003;67429;51.596;-3.264;2023-08-20T11:19:52;3;2;
78063;PMS5003;67429;51.596;-3.264;2023-08-20T11:22:17;2;1;
78063;PMS5003;67429;51.596;-3.264;2023-08-20T11:24:43;3;2;
78063;PMS5003;67429;51.596;-3.264;2023-08-20T11:27:08;4;4;
78063;PMS5003;67429;51.596;-3.264;2023-08-20T11:29:34;1;1;
78063;PMS5003;67429;51.596;-3.264;2023-08-20T11:31:59;3;3;
78063;PMS5003;67429;51.596;-3.264;2023-08-20T11:34:24;4;4;
78063;PMS5003;67429;51.596;-3.264;2023-08-20T11:36:50;3;3;
78063;PMS5003;67429;51.596;-3.264;2023-08-20T11:39:15;3;3;
78063;PMS5003;67429;51.596;-3.264;2023-08-20T11:41:41;2;2;
78063;PMS5003;67429;51.596;-3.264;2023-08-20T11:44:08;3;2;
78063;PMS5003;67429;51.596;-3.264;2023-08-20T11:46:32;3;2;
78063;PMS5003;67429;51.596;-3.264;2023-08-20T11:48:58;5;4;
78063;PMS5003;67429;51.596;-3.264;2023-08-20T11:51:22;3;3;
78063;PMS5003;67429;51.596;-3.264;2023-08-20T11:53:48;1;1;
78063;PMS5003;67429;51.596;-3.264;2023-08-20T11:56:13;2;2;
78063;PMS5003;67429;51.596;-3.264;2023-08-20T11:58:38;0;0;
78063;PMS5003;67429;51.596;-3.264;2023-08-20T12:01:07;2;2;
78063;PMS5003;67429;51.596;-3.264;2023-08-20T12:03:30;4;3;
78063;PMS5003;67429;51.596;-3.264;2023-08-20T12:05:54;2;2;
78063;PMS5003;67429;51.596;-3.264;2023-08-20T12:08:20;2;2;
78063;PMS5003;67429;51.596;-3.264;2023-08-20T12:10:45;3;3;
78063;PMS5003;67429;51.596;-3.264;2023-08-20T12:13:10;2;2;
78063;PMS5003;67429;51.596;-3.264;2023-08-20T12:15:36;2;2;
78063;PMS5003;67429;51.596;-3.264;2023-08-20T12:18:02;4;3;
78063;PMS5003;67429;51.596;-3.264;2023-08-20T12:20:27;3;3;
78063;PMS5003;67429;51.596;-3.264;2023-08-20T12:22:52;2;2;
78063;PMS5003;67429;51.596;-3.264;2023-08-20T12:25:17;3;3;
78063;PMS5003;67429;51.596;-3.264;2023-08-20T12:27:43;3;3;
78063;PMS5003;67429;51.596;-3.264;2023-08-20T12:30:08;2;2;
78063;PMS5003;67429;51.596;-3.264;2023-08-20T12:32:33;1;1;
78063;PMS5003;67429;51.596;-3.264;2023-08-20T12:34:59;2;2;
78063;PMS5003;67429;51.596;-3.264;2023-08-20T12:37:24;1;1;
78063;PMS5003;67429;51.596;-3.264;2023-08-20T12:39:50;0;0;
78063;PMS5003;67429;51.596;-3.264;2023-08-20T12:42:15;2;2;
78063;PMS5003;67429;51.596;-3.264;2023-08-20T12:44:40;0;0;
78063;PMS5003;67429;51.596;-3.264;2023-08-20T12:47:05;0;0;
78063;PMS5003;67429;51.596;-3.264;2023-08-20T12:49:31;2;1;
78063;PMS5003;67429;51.596;-3.264;2023-08-20T12:51:56;2;2;
78063;PMS5003;67429;51.596;-3.264;2023-08-20T12:54:21;1;0;
78063;PMS5003;67429;51.596;-3.264;2023-08-20T12:56:47;3;2;
78063;PMS5003;67429;51.596;-3.264;2023-08-20T12:59:12;1;1;
78063;PMS5003;67429;51.596;-3.264;2023-08-20T13:01:37;1;1;
78063;PMS5003;67429;51.596;-3.264;2023-08-20T13:04:03;2;1;
78063;PMS5003;67429;51.596;-3.264;2023-08-20T13:06:29;0;0;
78063;PMS5003;67429;51.596;-3.264;2023-08-20T13:08:54;1;1;
78063;PMS5003;67429;51.596;-3.264;2023-08-20T13:11:19;1;0;
78063;PMS5003;67429;51.596;-3.264;2023-08-20T13:13:45;0;0;
78063;PMS5003;67429;51.596;-3.264;2023-08-20T13:16:11;0;0;
78063;PMS5003;67429;51.596;-3.264;2023-08-20T13:18:36;1;1;
78063;PMS5003;67429;51.596;-3.264;2023-08-20T13:21:00;2;2;
78063;PMS5003;67429;51.596;-3.264;2023-08-20T13:23:26;2;1;
78063;PMS5003;67429;51.596;-3.264;2023-08-20T13:25:51;1;1;
78063;PMS5003;67429;51.596;-3.264;2023-08-20T13:28:16;1;1;
78063;PMS5003;67429;51.596;-3.264;2023-08-20T13:30:42;1;1;
78063;PMS5003;67429;51.596;-3.264;2023-08-20T13:33:07;1;1;
78063;PMS5003;67429;51.596;-3.264;2023-08-20T13:35:32;2;1;
78063;PMS5003;67429;51.596;-3.264;2023-08-20T13:37:58;3;3;
78063;PMS5003;67429;51.596;-3.264;2023-08-20T13:40:23;3;2;
78063;PMS5003;67429;51.596;-3.264;2023-08-20T13:42:48;1;1;
78063;PMS5003;67429;51.596;-3.264;2023-08-20T13:45:14;1;1;
78063;PMS5003;67429;51.596;-3.264;2023-08-20T13:47:39;2;2;
78063;PMS5003;67429;51.596;-3.264;2023-08-20T13:50:05;2;2;
78063;PMS5003;67429;51.596;-3.264;2023-08-20T13:52:30;2;2;
78063;PMS5003;67429;51.596;-3.264;2023-08-20T13:54:55;1;1;
78063;PMS5003;67429;51.596;-3.264;2023-08-20T13:57:21;2;2;
78063;PMS5003;67429;51.596;-3.264;2023-08-20T13:59:46;1;1;
78063;PMS5003;67429;51.596;-3.264;2023-08-20T14:02:11;0;0;
78063;PMS5003;67429;51.596;-3.264;2023-08-20T14:04:37;1;1;
78063;PMS5003;67429;51.596;-3.264;2023-08-20T14:07:02;0;0;
78063;PMS5003;67429;51.596;-3.264;2023-08-20T14:09:27;2;1;
78063;PMS5003;67429;51.596;-3.264;2023-08-20T14:11:53;2;2;
78063;PMS5003;67429;51.596;-3.264;2023-08-20T14:14:18;0;0;
78063;PMS5003;67429;51.596;-3.264;2023-08-20T14:16:43;1;0;
78063;PMS5003;67429;51.596;-3.264;2023-08-20T14:19:09;4;3;
78063;PMS5003;67429;51.596;-3.264;2023-08-20T14:21:34;2;1;
78063;PMS5003;67429;51.596;-3.264;2023-08-20T14:23:59;2;2;
78063;PMS5003;67429;51.596;-3.264;2023-08-20T14:26:25;1;1;
78063;PMS5003;67429;51.596;-3.264;2023-08-20T14:28:50;2;2;
78063;PMS5003;67429;51.596;-3.264;2023-08-20T14:31:16;1;1;
78063;PMS5003;67429;51.596;-3.264;2023-08-20T14:33:41;1;1;
78063;PMS5003;67429;51.596;-3.264;2023-08-20T14:36:06;0;0;
78063;PMS5003;67429;51.596;-3.264;2023-08-20T14:38:32;1;1;
78063;PMS5003;67429;51.596;-3.264;2023-08-20T14:40:59;1;0;
78063;PMS5003;67429;51.596;-3.264;2023-08-20T14:43:22;1;1;
78063;PMS5003;67429;51.596;-3.264;2023-08-20T14:45:48;0;0;
78063;PMS5003;67429;51.596;-3.264;2023-08-20T14:48:13;0;0;
78063;PMS5003;67429;51.596;-3.264;2023-08-20T14:50:39;1;1;
78063;PMS5003;67429;51.596;-3.264;2023-08-20T14:53:04;1;1;
78063;PMS5003;67429;51.596;-3.264;2023-08-20T14:55:29;2;2;
78063;PMS5003;67429;51.596;-3.264;2023-08-20T14:57:54;1;1;
78063;PMS5003;67429;51.596;-3.264;2023-08-20T15:00:20;0;0;
78063;PMS5003;67429;51.596;-3.264;2023-08-20T15:02:45;0;0;
78063;PMS5003;67429;51.596;-3.264;2023-08-20T15:05:11;1;1;
78063;PMS5003;67429;51.596;-3.264;2023-08-20T15:07:36;1;1;
78063;PMS5003;67429;51.596;-3.264;2023-08-20T15:10:01;1;1;
78063;PMS5003;67429;51.596;-3.264;2023-08-20T15:12:26;1;1;
78063;PMS5003;67429;51.596;-3.264;2023-08-20T15:14:52;2;2;
78063;PMS5003;67429;51.596;-3.264;2023-08-20T15:17:18;1;1;
78063;PMS5003;67429;51.596;-3.264;2023-08-20T15:19:42;2;2;
78063;PMS5003;67429;51.596;-3.264;2023-08-20T15:22:08;0;0;
78063;PMS5003;67429;51.596;-3.264;2023-08-20T15:24:33;0;0;
78063;PMS5003;67429;51.596;-3.264;2023-08-20T15:26:58;1;1;
78063;PMS5003;67429;51.596;-3.264;2023-08-20T15:29:24;1;1;
78063;PMS5003;67429;51.596;-3.264;2023-08-20T15:31:49;2;2;
78063;PMS5003;67429;51.596;-3.264;2023-08-20T15:34:14;2;2;
78063;PMS5003;67429;51.596;-3.264;2023-08-20T15:36:40;2;2;
78063;PMS5003;67429;51.596;-3.264;2023-08-20T15:39:05;2;2;
78063;PMS5003;67429;51.596;-3.264;2023-08-20T15:41:30;1;1;
78063;PMS5003;67429;51.596;-3.264;2023-08-20T15:43:56;2;1;
78063;PMS5003;67429;51.596;-3.264;2023-08-20T15:46:21;2;2;
78063;PMS5003;67429;51.596;-3.264;2023-08-20T15:48:47;1;1;
78063;PMS5003;67429;51.596;-3.264;2023-08-20T15:51:12;0;0;
78063;PMS5003;67429;51.596;-3.264;2023-08-20T15:53:37;0;0;
78063;PMS5003;67429;51.596;-3.264;2023-08-20T15:56:03;0;0;
78063;PMS5003;67429;51.596;-3.264;2023-08-20T15:58:28;3;2;
78063;PMS5003;67429;51.596;-3.264;2023-08-20T16:00:53;1;1;
78063;PMS5003;67429;51.596;-3.264;2023-08-20T16:03:19;1;1;
78063;PMS5003;67429;51.596;-3.264;2023-08-20T16:05:44;1;1;
78063;PMS5003;67429;51.596;-3.264;2023-08-20T16:08:09;2;2;
78063;PMS5003;67429;51.596;-3.264;2023-08-20T16:10:35;2;2;
78063;PMS5003;67429;51.596;-3.264;2023-08-20T16:13:00;2;2;
78063;PMS5003;67429;51.596;-3.264;2023-08-20T16:15:25;1;0;
78063;PMS5003;67429;51.596;-3.264;2023-08-20T16:17:51;2;2;
78063;PMS5003;67429;51.596;-3.264;2023-08-20T16:20:16;3;2;
78063;PMS5003;67429;51.596;-3.264;2023-08-20T16:22:41;2;2;
78063;PMS5003;67429;51.596;-3.264;2023-08-20T16:25:07;2;2;
78063;PMS5003;67429;51.596;-3.264;2023-08-20T16:27:32;1;1;